Accueil
METAR-TAF:

METAR-TAF

Aéroports :

Aéroport de Cap Skirring

Cap Skirring, Sénégal

latitude: 12-24N, longitude: 016-45W, altitude: 16 m

Observation

Le bulletin a été fait il y a 44 minutes, à 10:00 UTC
Vent 2 kt de direction variable
Température 29°C
Humidité 74%
Pression 1012 hPa
Visibilité 10 km ou plus
Nuages épars à une hauteur de 1500 ft

METAR: GOGS 221000Z VRB02KT 9999 SCT015 29/24 Q1012

Heure: 10:44 (10:44 UTC)

Prévision

Le bulletin a été fait il y a 5 heures et 14 minutes, à 05:30 UTC
Prévision valable du 22 à 06 UTC au 23 à 06 UTC
Vent 7 kt de ouest/nord-ouest
Visibilité 10 km ou plus
Nuages épars à une hauteur de 1300 ft

TAF: GOGS 220530Z 2206/2306 30007KT 9999 SCT013

Observations et prévisions météorologiques de plus de 4000 aéroports (messages METAR et TAF).

Les stations disponibles sont représentées par des disques jaunes et rouges sur la carte.

Passer la souris dessus pour voir le nom de la station.

Cliquer dessus pour voir les observations et prévisions météorologiques.

Pour changer de carte: cliquez sur les boutons verts avec une croix noire pour zoomer, sur le bouton vert avec un tiret pour effectuer un zoom arrière, ou sur les flèches vertes pour les cartes adjacentes.


METAR-TAF: